sensor_id;sensor_type;location;lat;lon;timestamp;P1;durP1;ratioP1;P2;durP2;ratioP2
60464;SDS011;46314;52.392;9.758;2024-01-30T00:01:35;11.35;;;10.10;;
60464;SDS011;46314;52.392;9.758;2024-01-30T00:04:01;15.48;;;10.38;;
60464;SDS011;46314;52.392;9.758;2024-01-30T00:06:29;13.95;;;11.70;;
60464;SDS011;46314;52.392;9.758;2024-01-30T00:08:56;11.13;;;9.85;;
60464;SDS011;46314;52.392;9.758;2024-01-30T00:11:23;12.25;;;10.52;;
60464;SDS011;46314;52.392;9.758;2024-01-30T00:13:49;13.50;;;10.48;;
60464;SDS011;46314;52.392;9.758;2024-01-30T00:16:19;12.50;;;10.98;;
60464;SDS011;46314;52.392;9.758;2024-01-30T00:18:46;15.25;;;11.10;;
60464;SDS011;46314;52.392;9.758;2024-01-30T00:21:13;13.00;;;10.82;;
60464;SDS011;46314;52.392;9.758;2024-01-30T00:23:41;14.60;;;10.48;;
60464;SDS011;46314;52.392;9.758;2024-01-30T00:26:07;13.93;;;11.40;;
60464;SDS011;46314;52.392;9.758;2024-01-30T00:28:33;16.05;;;10.75;;
60464;SDS011;46314;52.392;9.758;2024-01-30T00:31:00;13.43;;;10.75;;
60464;SDS011;46314;52.392;9.758;2024-01-30T00:33:26;13.90;;;11.88;;
60464;SDS011;46314;52.392;9.758;2024-01-30T00:35:53;13.18;;;10.98;;
60464;SDS011;46314;52.392;9.758;2024-01-30T00:38:20;14.68;;;10.70;;
60464;SDS011;46314;52.392;9.758;2024-01-30T00:40:47;11.43;;;9.88;;
60464;SDS011;46314;52.392;9.758;2024-01-30T00:43:14;12.77;;;11.32;;
60464;SDS011;46314;52.392;9.758;2024-01-30T00:45:41;13.60;;;10.68;;
60464;SDS011;46314;52.392;9.758;2024-01-30T00:48:09;11.75;;;10.00;;
60464;SDS011;46314;52.392;9.758;2024-01-30T00:50:36;12.13;;;10.85;;
60464;SDS011;46314;52.392;9.758;2024-01-30T00:53:02;12.63;;;10.75;;
60464;SDS011;46314;52.392;9.758;2024-01-30T00:55:29;11.73;;;10.02;;
60464;SDS011;46314;52.392;9.758;2024-01-30T00:57:57;12.45;;;10.05;;
60464;SDS011;46314;52.392;9.758;2024-01-30T01:00:23;14.13;;;11.00;;
60464;SDS011;46314;52.392;9.758;2024-01-30T01:02:50;13.60;;;11.45;;
60464;SDS011;46314;52.392;9.758;2024-01-30T01:05:16;14.00;;;11.48;;
60464;SDS011;46314;52.392;9.758;2024-01-30T01:07:43;14.05;;;10.98;;
60464;SDS011;46314;52.392;9.758;2024-01-30T01:10:09;14.00;;;10.90;;
60464;SDS011;46314;52.392;9.758;2024-01-30T01:12:36;15.07;;;11.50;;
60464;SDS011;46314;52.392;9.758;2024-01-30T01:15:04;13.50;;;11.00;;
60464;SDS011;46314;52.392;9.758;2024-01-30T01:17:31;13.13;;;11.50;;
60464;SDS011;46314;52.392;9.758;2024-01-30T01:19:57;16.23;;;11.57;;
60464;SDS011;46314;52.392;9.758;2024-01-30T01:22:24;14.20;;;10.75;;
60464;SDS011;46314;52.392;9.758;2024-01-30T01:24:50;14.00;;;11.50;;
60464;SDS011;46314;52.392;9.758;2024-01-30T01:27:17;15.18;;;10.93;;
60464;SDS011;46314;52.392;9.758;2024-01-30T01:29:43;14.80;;;10.48;;
60464;SDS011;46314;52.392;9.758;2024-01-30T01:32:11;12.25;;;10.57;;
60464;SDS011;46314;52.392;9.758;2024-01-30T01:34:37;15.65;;;12.18;;
60464;SDS011;46314;52.392;9.758;2024-01-30T01:37:04;14.23;;;11.35;;
60464;SDS011;46314;52.392;9.758;2024-01-30T01:39:31;13.82;;;10.82;;
60464;SDS011;46314;52.392;9.758;2024-01-30T01:41:57;12.80;;;10.98;;
60464;SDS011;46314;52.392;9.758;2024-01-30T01:44:24;11.88;;;10.63;;
60464;SDS011;46314;52.392;9.758;2024-01-30T01:46:50;13.73;;;11.18;;
60464;SDS011;46314;52.392;9.758;2024-01-30T01:49:18;14.25;;;11.63;;
60464;SDS011;46314;52.392;9.758;2024-01-30T01:51:46;13.48;;;11.13;;
60464;SDS011;46314;52.392;9.758;2024-01-30T01:54:14;14.63;;;10.57;;
60464;SDS011;46314;52.392;9.758;2024-01-30T01:56:41;15.52;;;11.25;;
60464;SDS011;46314;52.392;9.758;2024-01-30T01:59:08;13.98;;;10.82;;
60464;SDS011;46314;52.392;9.758;2024-01-30T02:01:36;16.08;;;11.05;;
60464;SDS011;46314;52.392;9.758;2024-01-30T02:04:03;12.93;;;10.90;;
60464;SDS011;46314;52.392;9.758;2024-01-30T02:06:32;14.60;;;11.70;;
60464;SDS011;46314;52.392;9.758;2024-01-30T02:08:59;13.60;;;11.32;;
60464;SDS011;46314;52.392;9.758;2024-01-30T02:11:26;14.40;;;11.38;;
60464;SDS011;46314;52.392;9.758;2024-01-30T02:13:53;14.13;;;11.52;;
60464;SDS011;46314;52.392;9.758;2024-01-30T02:16:19;14.63;;;11.27;;
60464;SDS011;46314;52.392;9.758;2024-01-30T02:18:46;12.73;;;11.30;;
60464;SDS011;46314;52.392;9.758;2024-01-30T02:21:14;15.10;;;11.70;;
60464;SDS011;46314;52.392;9.758;2024-01-30T02:23:40;14.90;;;10.35;;
60464;SDS011;46314;52.392;9.758;2024-01-30T02:26:09;12.13;;;10.68;;
60464;SDS011;46314;52.392;9.758;2024-01-30T02:28:35;13.95;;;10.73;;
60464;SDS011;46314;52.392;9.758;2024-01-30T02:31:01;16.48;;;11.40;;
60464;SDS011;46314;52.392;9.758;2024-01-30T02:33:28;12.85;;;11.40;;
60464;SDS011;46314;52.392;9.758;2024-01-30T02:35:55;17.42;;;10.98;;
60464;SDS011;46314;52.392;9.758;2024-01-30T02:38:22;13.30;;;11.73;;
60464;SDS011;46314;52.392;9.758;2024-01-30T02:40:49;13.55;;;11.40;;
60464;SDS011;46314;52.392;9.758;2024-01-30T02:43:16;12.05;;;10.77;;
60464;SDS011;46314;52.392;9.758;2024-01-30T02:45:43;18.27;;;11.75;;
60464;SDS011;46314;52.392;9.758;2024-01-30T02:48:09;12.50;;;10.40;;
60464;SDS011;46314;52.392;9.758;2024-01-30T02:50:36;17.15;;;10.52;;
60464;SDS011;46314;52.392;9.758;2024-01-30T02:53:02;14.25;;;12.45;;
60464;SDS011;46314;52.392;9.758;2024-01-30T02:55:30;13.95;;;11.15;;
60464;SDS011;46314;52.392;9.758;2024-01-30T02:57:57;14.60;;;12.27;;
60464;SDS011;46314;52.392;9.758;2024-01-30T03:00:23;20.15;;;12.07;;
60464;SDS011;46314;52.392;9.758;2024-01-30T03:02:49;13.48;;;11.98;;
60464;SDS011;46314;52.392;9.758;2024-01-30T03:05:16;16.55;;;12.07;;
60464;SDS011;46314;52.392;9.758;2024-01-30T03:07:42;15.73;;;11.00;;
60464;SDS011;46314;52.392;9.758;2024-01-30T03:10:09;13.90;;;11.85;;
60464;SDS011;46314;52.392;9.758;2024-01-30T03:12:37;14.80;;;12.30;;
60464;SDS011;46314;52.392;9.758;2024-01-30T03:15:04;16.17;;;11.57;;
60464;SDS011;46314;52.392;9.758;2024-01-30T03:17:30;13.02;;;11.68;;
60464;SDS011;46314;52.392;9.758;2024-01-30T03:19:57;14.30;;;11.98;;
60464;SDS011;46314;52.392;9.758;2024-01-30T03:22:24;13.95;;;11.63;;
60464;SDS011;46314;52.392;9.758;2024-01-30T03:24:50;14.80;;;10.35;;
60464;SDS011;46314;52.392;9.758;2024-01-30T03:27:17;11.45;;;10.25;;
60464;SDS011;46314;52.392;9.758;2024-01-30T03:29:44;13.57;;;11.05;;
60464;SDS011;46314;52.392;9.758;2024-01-30T03:32:11;12.35;;;11.02;;
60464;SDS011;46314;52.392;9.758;2024-01-30T03:34:37;16.63;;;11.85;;
60464;SDS011;46314;52.392;9.758;2024-01-30T03:37:04;15.20;;;11.43;;
60464;SDS011;46314;52.392;9.758;2024-01-30T03:39:31;13.77;;;10.75;;
60464;SDS011;46314;52.392;9.758;2024-01-30T03:41:57;13.90;;;10.90;;
60464;SDS011;46314;52.392;9.758;2024-01-30T03:44:24;13.20;;;11.18;;
60464;SDS011;46314;52.392;9.758;2024-01-30T03:46:51;17.38;;;12.30;;
60464;SDS011;46314;52.392;9.758;2024-01-30T03:49:18;14.52;;;11.45;;
60464;SDS011;46314;52.392;9.758;2024-01-30T03:51:44;14.55;;;11.98;;
60464;SDS011;46314;52.392;9.758;2024-01-30T03:54:11;15.77;;;12.02;;
60464;SDS011;46314;52.392;9.758;2024-01-30T03:56:37;11.85;;;10.52;;
60464;SDS011;46314;52.392;9.758;2024-01-30T03:59:04;16.85;;;11.15;;
60464;SDS011;46314;52.392;9.758;2024-01-30T04:01:30;13.60;;;11.05;;
60464;SDS011;46314;52.392;9.758;2024-01-30T04:03:58;12.13;;;10.93;;
60464;SDS011;46314;52.392;9.758;2024-01-30T04:06:26;15.25;;;10.73;;
60464;SDS011;46314;52.392;9.758;2024-01-30T04:08:52;13.27;;;10.95;;
60464;SDS011;46314;52.392;9.758;2024-01-30T04:11:18;13.15;;;11.07;;
60464;SDS011;46314;52.392;9.758;2024-01-30T04:13:45;14.85;;;11.45;;
60464;SDS011;46314;52.392;9.758;2024-01-30T04:16:18;13.77;;;11.75;;
60464;SDS011;46314;52.392;9.758;2024-01-30T04:18:46;15.30;;;11.00;;
60464;SDS011;46314;52.392;9.758;2024-01-30T04:21:13;12.93;;;11.05;;
60464;SDS011;46314;52.392;9.758;2024-01-30T04:23:40;14.88;;;11.38;;
60464;SDS011;46314;52.392;9.758;2024-01-30T04:26:07;14.02;;;10.02;;
60464;SDS011;46314;52.392;9.758;2024-01-30T04:28:33;12.48;;;10.07;;
60464;SDS011;46314;52.392;9.758;2024-01-30T04:30:59;12.65;;;10.27;;
60464;SDS011;46314;52.392;9.758;2024-01-30T04:33:26;12.77;;;9.82;;
60464;SDS011;46314;52.392;9.758;2024-01-30T04:35:52;14.18;;;10.80;;
60464;SDS011;46314;52.392;9.758;2024-01-30T04:38:20;12.93;;;10.18;;
60464;SDS011;46314;52.392;9.758;2024-01-30T04:40:47;13.02;;;10.85;;
60464;SDS011;46314;52.392;9.758;2024-01-30T04:43:13;15.73;;;10.85;;
60464;SDS011;46314;52.392;9.758;2024-01-30T04:45:40;12.57;;;10.63;;
60464;SDS011;46314;52.392;9.758;2024-01-30T04:48:06;11.40;;;9.77;;
60464;SDS011;46314;52.392;9.758;2024-01-30T04:50:33;13.10;;;10.35;;
60464;SDS011;46314;52.392;9.758;2024-01-30T04:52:59;19.15;;;12.15;;
60464;SDS011;46314;52.392;9.758;2024-01-30T04:55:27;12.20;;;9.98;;
60464;SDS011;46314;52.392;9.758;2024-01-30T04:57:54;14.50;;;11.20;;
60464;SDS011;46314;52.392;9.758;2024-01-30T05:00:20;12.65;;;10.80;;
60464;SDS011;46314;52.392;9.758;2024-01-30T05:02:47;12.65;;;9.73;;
60464;SDS011;46314;52.392;9.758;2024-01-30T05:05:13;12.43;;;11.02;;
60464;SDS011;46314;52.392;9.758;2024-01-30T05:07:41;14.65;;;10.35;;
60464;SDS011;46314;52.392;9.758;2024-01-30T05:10:07;11.98;;;9.48;;
60464;SDS011;46314;52.392;9.758;2024-01-30T05:12:36;11.93;;;9.65;;
60464;SDS011;46314;52.392;9.758;2024-01-30T05:15:02;17.35;;;10.80;;
60464;SDS011;46314;52.392;9.758;2024-01-30T05:17:29;12.63;;;10.20;;
60464;SDS011;46314;52.392;9.758;2024-01-30T05:19:56;13.48;;;9.68;;
60464;SDS011;46314;52.392;9.758;2024-01-30T05:22:22;12.57;;;9.98;;
60464;SDS011;46314;52.392;9.758;2024-01-30T05:24:49;13.80;;;10.55;;
60464;SDS011;46314;52.392;9.758;2024-01-30T05:27:15;12.93;;;10.95;;
60464;SDS011;46314;52.392;9.758;2024-01-30T05:29:43;13.00;;;10.20;;
60464;SDS011;46314;52.392;9.758;2024-01-30T05:32:10;14.02;;;11.07;;
60464;SDS011;46314;52.392;9.758;2024-01-30T05:34:36;12.38;;;9.85;;
60464;SDS011;46314;52.392;9.758;2024-01-30T05:37:03;11.38;;;9.43;;
60464;SDS011;46314;52.392;9.758;2024-01-30T05:39:29;14.57;;;10.40;;
60464;SDS011;46314;52.392;9.758;2024-01-30T05:41:56;16.55;;;11.15;;
60464;SDS011;46314;52.392;9.758;2024-01-30T05:44:22;14.55;;;10.57;;
60464;SDS011;46314;52.392;9.758;2024-01-30T05:46:50;12.00;;;10.50;;
60464;SDS011;46314;52.392;9.758;2024-01-30T05:49:17;14.05;;;10.63;;
60464;SDS011;46314;52.392;9.758;2024-01-30T05:51:43;14.15;;;10.80;;
60464;SDS011;46314;52.392;9.758;2024-01-30T05:54:10;13.65;;;10.88;;
60464;SDS011;46314;52.392;9.758;2024-01-30T05:56:38;12.35;;;10.40;;
60464;SDS011;46314;52.392;9.758;2024-01-30T05:59:05;14.50;;;10.40;;
60464;SDS011;46314;52.392;9.758;2024-01-30T06:01:31;14.80;;;10.43;;
60464;SDS011;46314;52.392;9.758;2024-01-30T06:03:59;15.55;;;11.50;;
60464;SDS011;46314;52.392;9.758;2024-01-30T06:06:26;11.32;;;10.20;;
60464;SDS011;46314;52.392;9.758;2024-01-30T06:08:52;13.23;;;9.98;;
60464;SDS011;46314;52.392;9.758;2024-01-30T06:11:18;13.93;;;10.98;;
60464;SDS011;46314;52.392;9.758;2024-01-30T06:13:45;11.30;;;9.55;;
60464;SDS011;46314;52.392;9.758;2024-01-30T06:16:11;12.10;;;10.05;;
60464;SDS011;46314;52.392;9.758;2024-01-30T06:18:38;14.90;;;10.25;;
60464;SDS011;46314;52.392;9.758;2024-01-30T06:21:06;14.45;;;10.90;;
60464;SDS011;46314;52.392;9.758;2024-01-30T06:23:35;14.00;;;10.30;;
60464;SDS011;46314;52.392;9.758;2024-01-30T06:26:02;16.65;;;10.57;;
60464;SDS011;46314;52.392;9.758;2024-01-30T06:28:28;13.85;;;10.68;;
60464;SDS011;46314;52.392;9.758;2024-01-30T06:30:54;13.48;;;9.77;;
60464;SDS011;46314;52.392;9.758;2024-01-30T06:33:21;14.73;;;11.20;;
60464;SDS011;46314;52.392;9.758;2024-01-30T06:35:47;15.30;;;11.18;;
60464;SDS011;46314;52.392;9.758;2024-01-30T06:38:15;12.52;;;9.68;;
60464;SDS011;46314;52.392;9.758;2024-01-30T06:40:42;13.27;;;10.80;;
60464;SDS011;46314;52.392;9.758;2024-01-30T06:43:08;13.90;;;11.00;;
60464;SDS011;46314;52.392;9.758;2024-01-30T06:45:35;12.77;;;11.07;;
60464;SDS011;46314;52.392;9.758;2024-01-30T06:48:02;13.88;;;11.30;;
60464;SDS011;46314;52.392;9.758;2024-01-30T06:50:28;13.52;;;10.52;;
60464;SDS011;46314;52.392;9.758;2024-01-30T06:52:55;13.55;;;10.13;;
60464;SDS011;46314;52.392;9.758;2024-01-30T06:55:23;13.88;;;10.75;;
60464;SDS011;46314;52.392;9.758;2024-01-30T06:57:49;10.95;;;9.85;;
60464;SDS011;46314;52.392;9.758;2024-01-30T07:00:17;13.30;;;9.98;;
60464;SDS011;46314;52.392;9.758;2024-01-30T07:02:44;14.52;;;10.80;;
60464;SDS011;46314;52.392;9.758;2024-01-30T07:05:10;13.07;;;10.57;;
60464;SDS011;46314;52.392;9.758;2024-01-30T07:07:37;14.18;;;11.48;;
60464;SDS011;46314;52.392;9.758;2024-01-30T07:10:04;11.65;;;10.38;;
60464;SDS011;46314;52.392;9.758;2024-01-30T07:12:32;13.50;;;9.60;;
60464;SDS011;46314;52.392;9.758;2024-01-30T07:14:59;11.57;;;10.05;;
60464;SDS011;46314;52.392;9.758;2024-01-30T07:17:25;12.48;;;10.50;;
60464;SDS011;46314;52.392;9.758;2024-01-30T07:19:52;14.25;;;10.77;;
60464;SDS011;46314;52.392;9.758;2024-01-30T07:22:18;14.27;;;10.25;;
60464;SDS011;46314;52.392;9.758;2024-01-30T07:24:45;11.45;;;9.95;;
60464;SDS011;46314;52.392;9.758;2024-01-30T07:27:11;18.02;;;10.93;;
60464;SDS011;46314;52.392;9.758;2024-01-30T07:29:39;13.45;;;10.20;;
60464;SDS011;46314;52.392;9.758;2024-01-30T07:32:06;14.07;;;10.38;;
60464;SDS011;46314;52.392;9.758;2024-01-30T07:34:32;12.25;;;10.32;;
60464;SDS011;46314;52.392;9.758;2024-01-30T07:37:10;12.38;;;10.32;;
60464;SDS011;46314;52.392;9.758;2024-01-30T07:39:37;13.98;;;10.57;;
60464;SDS011;46314;52.392;9.758;2024-01-30T07:42:03;12.70;;;9.40;;
60464;SDS011;46314;52.392;9.758;2024-01-30T07:44:33;12.45;;;9.95;;
60464;SDS011;46314;52.392;9.758;2024-01-30T07:47:01;14.60;;;11.10;;
60464;SDS011;46314;52.392;9.758;2024-01-30T07:49:27;13.00;;;9.95;;
60464;SDS011;46314;52.392;9.758;2024-01-30T07:51:54;13.15;;;10.07;;
60464;SDS011;46314;52.392;9.758;2024-01-30T07:54:20;12.95;;;10.27;;
60464;SDS011;46314;52.392;9.758;2024-01-30T07:56:47;11.68;;;10.23;;
60464;SDS011;46314;52.392;9.758;2024-01-30T07:59:13;14.05;;;9.90;;
60464;SDS011;46314;52.392;9.758;2024-01-30T08:01:40;13.75;;;9.93;;
60464;SDS011;46314;52.392;9.758;2024-01-30T08:04:09;13.57;;;9.93;;
60464;SDS011;46314;52.392;9.758;2024-01-30T08:06:35;12.93;;;10.07;;
60464;SDS011;46314;52.392;9.758;2024-01-30T08:09:02;14.00;;;10.13;;
60464;SDS011;46314;52.392;9.758;2024-01-30T08:11:29;13.90;;;9.98;;
60464;SDS011;46314;52.392;9.758;2024-01-30T08:13:55;12.73;;;10.10;;
60464;SDS011;46314;52.392;9.758;2024-01-30T08:16:22;15.02;;;10.55;;
60464;SDS011;46314;52.392;9.758;2024-01-30T08:18:48;13.65;;;10.48;;
60464;SDS011;46314;52.392;9.758;2024-01-30T08:21:16;14.68;;;10.25;;
60464;SDS011;46314;52.392;9.758;2024-01-30T08:23:42;13.10;;;10.95;;
60464;SDS011;46314;52.392;9.758;2024-01-30T08:26:09;15.25;;;10.45;;
60464;SDS011;46314;52.392;9.758;2024-01-30T08:28:36;13.57;;;9.70;;
60464;SDS011;46314;52.392;9.758;2024-01-30T08:31:03;17.10;;;10.88;;
60464;SDS011;46314;52.392;9.758;2024-01-30T08:33:30;13.70;;;9.85;;
60464;SDS011;46314;52.392;9.758;2024-01-30T08:35:56;15.93;;;10.77;;
60464;SDS011;46314;52.392;9.758;2024-01-30T08:38:25;13.77;;;9.93;;
60464;SDS011;46314;52.392;9.758;2024-01-30T08:40:51;13.02;;;10.32;;
60464;SDS011;46314;52.392;9.758;2024-01-30T08:43:17;12.07;;;10.00;;
60464;SDS011;46314;52.392;9.758;2024-01-30T08:45:44;11.65;;;10.20;;
60464;SDS011;46314;52.392;9.758;2024-01-30T08:48:11;12.65;;;10.07;;
60464;SDS011;46314;52.392;9.758;2024-01-30T08:50:37;11.85;;;10.05;;
60464;SDS011;46314;52.392;9.758;2024-01-30T08:53:04;10.93;;;9.70;;
60464;SDS011;46314;52.392;9.758;2024-01-30T08:55:32;14.13;;;9.77;;
60464;SDS011;46314;52.392;9.758;2024-01-30T08:57:58;13.30;;;10.50;;
60464;SDS011;46314;52.392;9.758;2024-01-30T09:00:25;13.68;;;10.27;;
60464;SDS011;46314;52.392;9.758;2024-01-30T09:02:51;11.77;;;10.05;;
60464;SDS011;46314;52.392;9.758;2024-01-30T09:05:17;15.95;;;10.30;;
60464;SDS011;46314;52.392;9.758;2024-01-30T09:07:44;11.85;;;9.85;;
60464;SDS011;46314;52.392;9.758;2024-01-30T09:10:11;11.45;;;10.18;;
60464;SDS011;46314;52.392;9.758;2024-01-30T09:12:41;13.57;;;9.68;;
60464;SDS011;46314;52.392;9.758;2024-01-30T09:15:08;11.63;;;9.43;;
60464;SDS011;46314;52.392;9.758;2024-01-30T09:17:35;12.93;;;10.10;;
60464;SDS011;46314;52.392;9.758;2024-01-30T09:20:02;11.75;;;9.77;;
60464;SDS011;46314;52.392;9.758;2024-01-30T09:22:29;14.57;;;10.88;;
60464;SDS011;46314;52.392;9.758;2024-01-30T09:24:55;13.02;;;9.98;;
60464;SDS011;46314;52.392;9.758;2024-01-30T09:27:22;12.70;;;10.52;;
60464;SDS011;46314;52.392;9.758;2024-01-30T09:29:50;13.40;;;10.27;;
60464;SDS011;46314;52.392;9.758;2024-01-30T09:32:16;13.23;;;10.15;;
60464;SDS011;46314;52.392;9.758;2024-01-30T09:34:43;10.50;;;9.23;;
60464;SDS011;46314;52.392;9.758;2024-01-30T09:37:09;12.50;;;9.45;;
60464;SDS011;46314;52.392;9.758;2024-01-30T09:39:37;11.23;;;9.82;;
60464;SDS011;46314;52.392;9.758;2024-01-30T09:42:05;11.98;;;9.05;;
60464;SDS011;46314;52.392;9.758;2024-01-30T09:44:38;12.88;;;9.52;;
60464;SDS011;46314;52.392;9.758;2024-01-30T09:47:08;11.40;;;9.55;;
60464;SDS011;46314;52.392;9.758;2024-01-30T09:49:36;13.98;;;10.60;;
60464;SDS011;46314;52.392;9.758;2024-01-30T09:52:04;13.93;;;9.90;;
60464;SDS011;46314;52.392;9.758;2024-01-30T09:54:31;13.13;;;10.20;;
60464;SDS011;46314;52.392;9.758;2024-01-30T09:57:02;13.02;;;11.05;;
60464;SDS011;46314;52.392;9.758;2024-01-30T09:59:29;12.20;;;10.10;;
60464;SDS011;46314;52.392;9.758;2024-01-30T10:01:55;12.52;;;9.98;;
60464;SDS011;46314;52.392;9.758;2024-01-30T10:04:24;13.75;;;10.30;;
60464;SDS011;46314;52.392;9.758;2024-01-30T10:06:51;11.60;;;9.05;;
60464;SDS011;46314;52.392;9.758;2024-01-30T10:09:18;13.77;;;9.48;;
60464;SDS011;46314;52.392;9.758;2024-01-30T10:11:44;14.32;;;10.30;;
60464;SDS011;46314;52.392;9.758;2024-01-30T10:14:11;12.57;;;9.40;;
60464;SDS011;46314;52.392;9.758;2024-01-30T10:16:37;12.70;;;9.43;;
60464;SDS011;46314;52.392;9.758;2024-01-30T10:19:04;10.65;;;9.35;;
60464;SDS011;46314;52.392;9.758;2024-01-30T10:21:32;12.55;;;9.57;;
60464;SDS011;46314;52.392;9.758;2024-01-30T10:23:58;13.50;;;10.10;;
60464;SDS011;46314;52.392;9.758;2024-01-30T10:26:25;14.38;;;9.55;;
60464;SDS011;46314;52.392;9.758;2024-01-30T10:28:51;10.85;;;9.45;;
60464;SDS011;46314;52.392;9.758;2024-01-30T10:31:18;12.95;;;9.95;;
60464;SDS011;46314;52.392;9.758;2024-01-30T10:33:45;10.55;;;8.90;;
60464;SDS011;46314;52.392;9.758;2024-01-30T10:36:13;16.08;;;9.98;;
60464;SDS011;46314;52.392;9.758;2024-01-30T10:38:45;13.02;;;9.75;;
60464;SDS011;46314;52.392;9.758;2024-01-30T10:41:13;12.48;;;9.52;;
60464;SDS011;46314;52.392;9.758;2024-01-30T10:43:46;14.57;;;10.30;;
60464;SDS011;46314;52.392;9.758;2024-01-30T10:46:18;12.23;;;9.93;;
60464;SDS011;46314;52.392;9.758;2024-01-30T10:48:46;12.05;;;9.73;;
60464;SDS011;46314;52.392;9.758;2024-01-30T10:51:17;12.57;;;10.07;;
60464;SDS011;46314;52.392;9.758;2024-01-30T10:53:47;13.63;;;9.45;;
60464;SDS011;46314;52.392;9.758;2024-01-30T10:56:15;10.27;;;9.20;;
60464;SDS011;46314;52.392;9.758;2024-01-30T10:58:42;12.70;;;8.70;;
60464;SDS011;46314;52.392;9.758;2024-01-30T11:01:08;15.40;;;9.50;;
60464;SDS011;46314;52.392;9.758;2024-01-30T11:03:36;13.02;;;10.00;;
60464;SDS011;46314;52.392;9.758;2024-01-30T11:06:03;14.38;;;9.65;;
60464;SDS011;46314;52.392;9.758;2024-01-30T11:08:31;12.07;;;10.40;;
60464;SDS011;46314;52.392;9.758;2024-01-30T11:10:59;11.38;;;10.18;;
60464;SDS011;46314;52.392;9.758;2024-01-30T11:13:26;13.25;;;9.60;;
60464;SDS011;46314;52.392;9.758;2024-01-30T11:15:53;15.07;;;10.50;;
60464;SDS011;46314;52.392;9.758;2024-01-30T11:18:23;13.00;;;9.25;;
60464;SDS011;46314;52.392;9.758;2024-01-30T11:20:50;11.10;;;9.57;;
60464;SDS011;46314;52.392;9.758;2024-01-30T11:23:16;12.77;;;9.20;;
60464;SDS011;46314;52.392;9.758;2024-01-30T11:25:43;12.57;;;9.82;;
60464;SDS011;46314;52.392;9.758;2024-01-30T11:28:14;10.68;;;9.20;;
60464;SDS011;46314;52.392;9.758;2024-01-30T11:30:41;10.88;;;9.77;;
60464;SDS011;46314;52.392;9.758;2024-01-30T11:33:09;10.73;;;9.40;;
60464;SDS011;46314;52.392;9.758;2024-01-30T11:35:37;13.32;;;9.60;;
60464;SDS011;46314;52.392;9.758;2024-01-30T11:38:04;10.57;;;9.48;;
60464;SDS011;46314;52.392;9.758;2024-01-30T11:40:32;11.07;;;9.45;;
60464;SDS011;46314;52.392;9.758;2024-01-30T11:43:00;10.52;;;8.93;;
60464;SDS011;46314;52.392;9.758;2024-01-30T11:45:30;11.63;;;10.27;;
60464;SDS011;46314;52.392;9.758;2024-01-30T11:47:57;14.02;;;9.80;;
60464;SDS011;46314;52.392;9.758;2024-01-30T11:50:24;11.55;;;10.35;;
60464;SDS011;46314;52.392;9.758;2024-01-30T11:52:51;14.10;;;11.45;;
60464;SDS011;46314;52.392;9.758;2024-01-30T11:55:17;11.02;;;9.85;;
60464;SDS011;46314;52.392;9.758;2024-01-30T11:57:45;14.30;;;10.23;;
60464;SDS011;46314;52.392;9.758;2024-01-30T12:00:14;13.60;;;9.77;;
60464;SDS011;46314;52.392;9.758;2024-01-30T12:02:43;10.18;;;9.18;;
60464;SDS011;46314;52.392;9.758;2024-01-30T12:05:10;10.90;;;8.68;;
60464;SDS011;46314;52.392;9.758;2024-01-30T12:07:36;12.77;;;9.75;;
60464;SDS011;46314;52.392;9.758;2024-01-30T12:10:04;13.50;;;10.50;;
60464;SDS011;46314;52.392;9.758;2024-01-30T12:12:30;12.35;;;9.80;;
60464;SDS011;46314;52.392;9.758;2024-01-30T12:14:57;11.00;;;9.95;;
60464;SDS011;46314;52.392;9.758;2024-01-30T12:17:26;11.02;;;9.70;;
60464;SDS011;46314;52.392;9.758;2024-01-30T12:20:03;10.82;;;9.70;;
60464;SDS011;46314;52.392;9.758;2024-01-30T12:22:30;11.00;;;9.45;;
60464;SDS011;46314;52.392;9.758;2024-01-30T12:24:57;10.82;;;9.00;;
60464;SDS011;46314;52.392;9.758;2024-01-30T12:27:23;11.68;;;9.95;;
60464;SDS011;46314;52.392;9.758;2024-01-30T12:29:55;11.77;;;9.60;;
60464;SDS011;46314;52.392;9.758;2024-01-30T12:32:22;11.18;;;8.80;;
60464;SDS011;46314;52.392;9.758;2024-01-30T12:34:48;11.15;;;9.10;;
60464;SDS011;46314;52.392;9.758;2024-01-30T12:37:27;12.32;;;10.23;;
60464;SDS011;46314;52.392;9.758;2024-01-30T12:39:54;13.13;;;9.32;;
60464;SDS011;46314;52.392;9.758;2024-01-30T12:42:21;12.23;;;9.95;;
60464;SDS011;46314;52.392;9.758;2024-01-30T12:44:47;11.93;;;9.32;;
60464;SDS011;46314;52.392;9.758;2024-01-30T12:47:14;13.70;;;8.50;;
60464;SDS011;46314;52.392;9.758;2024-01-30T12:49:41;15.80;;;9.80;;
60464;SDS011;46314;52.392;9.758;2024-01-30T12:52:07;11.45;;;9.77;;
60464;SDS011;46314;52.392;9.758;2024-01-30T12:54:35;13.48;;;9.80;;
60464;SDS011;46314;52.392;9.758;2024-01-30T12:57:02;10.57;;;9.27;;
60464;SDS011;46314;52.392;9.758;2024-01-30T12:59:28;12.10;;;10.07;;
60464;SDS011;46314;52.392;9.758;2024-01-30T13:01:55;11.82;;;8.95;;
60464;SDS011;46314;52.392;9.758;2024-01-30T13:04:22;11.82;;;8.73;;
60464;SDS011;46314;52.392;9.758;2024-01-30T13:06:49;12.15;;;10.02;;
60464;SDS011;46314;52.392;9.758;2024-01-30T13:09:15;11.48;;;8.90;;
60464;SDS011;46314;52.392;9.758;2024-01-30T13:11:43;9.90;;;8.90;;
60464;SDS011;46314;52.392;9.758;2024-01-30T13:14:10;12.25;;;9.88;;
60464;SDS011;46314;52.392;9.758;2024-01-30T13:16:36;12.10;;;9.95;;
60464;SDS011;46314;52.392;9.758;2024-01-30T13:19:02;10.77;;;9.02;;
60464;SDS011;46314;52.392;9.758;2024-01-30T13:21:29;10.35;;;8.27;;
60464;SDS011;46314;52.392;9.758;2024-01-30T13:23:56;13.95;;;9.50;;
60464;SDS011;46314;52.392;9.758;2024-01-30T13:26:22;10.63;;;8.40;;
60464;SDS011;46314;52.392;9.758;2024-01-30T13:28:50;15.15;;;10.07;;
60464;SDS011;46314;52.392;9.758;2024-01-30T13:31:16;11.15;;;8.82;;
60464;SDS011;46314;52.392;9.758;2024-01-30T13:33:43;11.68;;;9.70;;
60464;SDS011;46314;52.392;9.758;2024-01-30T13:36:10;14.27;;;9.10;;
60464;SDS011;46314;52.392;9.758;2024-01-30T13:38:37;11.77;;;9.43;;
60464;SDS011;46314;52.392;9.758;2024-01-30T13:41:04;11.05;;;9.65;;
60464;SDS011;46314;52.392;9.758;2024-01-30T13:43:30;14.02;;;10.15;;
60464;SDS011;46314;52.392;9.758;2024-01-30T13:45:58;10.38;;;9.25;;
60464;SDS011;46314;52.392;9.758;2024-01-30T13:48:25;14.75;;;10.32;;
60464;SDS011;46314;52.392;9.758;2024-01-30T13:50:52;13.07;;;9.23;;
60464;SDS011;46314;52.392;9.758;2024-01-30T13:53:19;15.27;;;9.98;;
60464;SDS011;46314;52.392;9.758;2024-01-30T13:55:45;11.10;;;8.85;;
60464;SDS011;46314;52.392;9.758;2024-01-30T13:58:12;11.85;;;8.65;;
60464;SDS011;46314;52.392;9.758;2024-01-30T14:00:38;11.60;;;9.05;;
60464;SDS011;46314;52.392;9.758;2024-01-30T14:03:06;16.15;;;9.02;;
60464;SDS011;46314;52.392;9.758;2024-01-30T14:05:33;10.35;;;8.68;;
60464;SDS011;46314;52.392;9.758;2024-01-30T14:07:59;11.50;;;9.30;;
60464;SDS011;46314;52.392;9.758;2024-01-30T14:10:26;12.25;;;9.25;;
60464;SDS011;46314;52.392;9.758;2024-01-30T14:12:53;12.48;;;9.52;;
60464;SDS011;46314;52.392;9.758;2024-01-30T14:15:19;9.68;;;8.40;;
60464;SDS011;46314;52.392;9.758;2024-01-30T14:17:54;16.05;;;9.68;;
60464;SDS011;46314;52.392;9.758;2024-01-30T14:20:23;16.25;;;10.05;;
60464;SDS011;46314;52.392;9.758;2024-01-30T14:22:50;12.75;;;9.18;;
60464;SDS011;46314;52.392;9.758;2024-01-30T14:25:16;12.57;;;10.48;;